sensor_id;sensor_type;location;lat;lon;timestamp;temperature;humidity
7028;DHT22;3555;53.248;10.336;2023-04-23T00:01:37;16.70;12.90
7028;DHT22;3555;53.248;10.336;2023-04-23T00:04:07;16.60;99.90
7028;DHT22;3555;53.248;10.336;2023-04-23T00:06:35;16.40;99.90
7028;DHT22;3555;53.248;10.336;2023-04-23T00:09:02;16.40;99.90
7028;DHT22;3555;53.248;10.336;2023-04-23T00:11:29;16.40;1.00
7028;DHT22;3555;53.248;10.336;2023-04-23T00:13:57;16.20;99.90
7028;DHT22;3555;53.248;10.336;2023-04-23T00:16:25;16.50;1.00
7028;DHT22;3555;53.248;10.336;2023-04-23T00:18:51;16.30;1.00
7028;DHT22;3555;53.248;10.336;2023-04-23T00:21:20;16.20;1.00
7028;DHT22;3555;53.248;10.336;2023-04-23T00:23:47;16.10;99.90
7028;DHT22;3555;53.248;10.336;2023-04-23T00:26:13;16.10;99.90
7028;DHT22;3555;53.248;10.336;2023-04-23T00:28:42;16.10;99.90
7028;DHT22;3555;53.248;10.336;2023-04-23T00:31:09;16.10;1.00
7028;DHT22;3555;53.248;10.336;2023-04-23T00:33:36;16.10;1.00
7028;DHT22;3555;53.248;10.336;2023-04-23T00:36:03;15.90;1.00
7028;DHT22;3555;53.248;10.336;2023-04-23T00:38:32;15.90;1.00
7028;DHT22;3555;53.248;10.336;2023-04-23T00:40:58;15.80;1.00
7028;DHT22;3555;53.248;10.336;2023-04-23T00:43:25;15.80;99.90
7028;DHT22;3555;53.248;10.336;2023-04-23T00:45:53;15.80;1.00
7028;DHT22;3555;53.248;10.336;2023-04-23T00:48:20;15.80;99.90
7028;DHT22;3555;53.248;10.336;2023-04-23T00:50:47;15.80;1.00
7028;DHT22;3555;53.248;10.336;2023-04-23T00:53:14;15.80;99.90
7028;DHT22;3555;53.248;10.336;2023-04-23T00:55:42;15.80;99.90
7028;DHT22;3555;53.248;10.336;2023-04-23T00:58:09;15.80;1.00
7028;DHT22;3555;53.248;10.336;2023-04-23T01:00:42;16.00;1.00
7028;DHT22;3555;53.248;10.336;2023-04-23T01:03:10;16.10;99.90
7028;DHT22;3555;53.248;10.336;2023-04-23T01:05:38;16.20;99.90
7028;DHT22;3555;53.248;10.336;2023-04-23T01:08:05;16.30;1.00
7028;DHT22;3555;53.248;10.336;2023-04-23T01:10:32;16.40;1.00
7028;DHT22;3555;53.248;10.336;2023-04-23T01:13:01;16.40;1.00
7028;DHT22;3555;53.248;10.336;2023-04-23T01:15:27;16.40;1.00
7028;DHT22;3555;53.248;10.336;2023-04-23T01:17:54;16.40;1.00
7028;DHT22;3555;53.248;10.336;2023-04-23T01:20:22;16.50;1.00
7028;DHT22;3555;53.248;10.336;2023-04-23T01:22:51;16.50;1.00
7028;DHT22;3555;53.248;10.336;2023-04-23T01:25:18;16.20;99.90
7028;DHT22;3555;53.248;10.336;2023-04-23T01:27:45;16.20;99.90
7028;DHT22;3555;53.248;10.336;2023-04-23T01:30:13;16.10;99.90
7028;DHT22;3555;53.248;10.336;2023-04-23T01:32:40;16.10;1.00
7028;DHT22;3555;53.248;10.336;2023-04-23T01:35:09;16.10;99.90
7028;DHT22;3555;53.248;10.336;2023-04-23T01:37:38;16.00;99.90
7028;DHT22;3555;53.248;10.336;2023-04-23T01:40:07;15.90;1.00
7028;DHT22;3555;53.248;10.336;2023-04-23T01:42:35;15.90;1.00
7028;DHT22;3555;53.248;10.336;2023-04-23T01:45:02;15.80;99.90
7028;DHT22;3555;53.248;10.336;2023-04-23T01:47:29;15.80;1.00
7028;DHT22;3555;53.248;10.336;2023-04-23T01:49:56;15.80;99.90
7028;DHT22;3555;53.248;10.336;2023-04-23T01:52:23;15.70;1.00
7028;DHT22;3555;53.248;10.336;2023-04-23T01:54:50;15.70;99.30
7028;DHT22;3555;53.248;10.336;2023-04-23T01:57:18;15.90;65.00
7028;DHT22;3555;53.248;10.336;2023-04-23T01:59:48;15.60;99.90
7028;DHT22;3555;53.248;10.336;2023-04-23T02:02:15;15.50;99.90
7028;DHT22;3555;53.248;10.336;2023-04-23T02:04:43;15.50;99.90
7028;DHT22;3555;53.248;10.336;2023-04-23T02:07:10;15.50;87.60
7028;DHT22;3555;53.248;10.336;2023-04-23T02:09:37;15.50;1.00
7028;DHT22;3555;53.248;10.336;2023-04-23T02:12:04;15.40;1.00
7028;DHT22;3555;53.248;10.336;2023-04-23T02:14:32;15.40;42.00
7028;DHT22;3555;53.248;10.336;2023-04-23T02:16:59;15.40;1.00
7028;DHT22;3555;53.248;10.336;2023-04-23T02:19:27;15.40;99.90
7028;DHT22;3555;53.248;10.336;2023-04-23T02:21:56;15.20;1.00
7028;DHT22;3555;53.248;10.336;2023-04-23T02:24:23;15.20;1.00
7028;DHT22;3555;53.248;10.336;2023-04-23T02:26:49;15.30;99.90
7028;DHT22;3555;53.248;10.336;2023-04-23T02:29:16;15.30;99.90
7028;DHT22;3555;53.248;10.336;2023-04-23T02:31:44;15.40;1.00
7028;DHT22;3555;53.248;10.336;2023-04-23T02:34:11;15.40;1.00
7028;DHT22;3555;53.248;10.336;2023-04-23T02:36:38;15.40;1.00
7028;DHT22;3555;53.248;10.336;2023-04-23T02:39:05;15.40;99.90
7028;DHT22;3555;53.248;10.336;2023-04-23T02:41:32;15.50;99.90
7028;DHT22;3555;53.248;10.336;2023-04-23T02:43:59;15.50;95.00
7028;DHT22;3555;53.248;10.336;2023-04-23T02:46:26;15.50;1.00
7028;DHT22;3555;53.248;10.336;2023-04-23T02:48:54;15.40;99.90
7028;DHT22;3555;53.248;10.336;2023-04-23T02:51:21;15.20;99.90
7028;DHT22;3555;53.248;10.336;2023-04-23T02:53:47;15.20;1.00
7028;DHT22;3555;53.248;10.336;2023-04-23T02:56:15;15.20;1.00
7028;DHT22;3555;53.248;10.336;2023-04-23T02:58:41;15.30;1.00
7028;DHT22;3555;53.248;10.336;2023-04-23T03:01:08;15.20;1.00
7028;DHT22;3555;53.248;10.336;2023-04-23T03:03:35;15.20;1.00
7028;DHT22;3555;53.248;10.336;2023-04-23T03:06:04;15.10;1.00
7028;DHT22;3555;53.248;10.336;2023-04-23T03:08:32;15.10;1.00
7028;DHT22;3555;53.248;10.336;2023-04-23T03:10:59;15.10;99.90
7028;DHT22;3555;53.248;10.336;2023-04-23T03:13:26;15.10;1.00
7028;DHT22;3555;53.248;10.336;2023-04-23T03:15:53;15.20;1.00
7028;DHT22;3555;53.248;10.336;2023-04-23T03:18:20;15.20;1.00
7028;DHT22;3555;53.248;10.336;2023-04-23T03:20:47;15.20;99.90
7028;DHT22;3555;53.248;10.336;2023-04-23T03:23:16;15.00;1.00
7028;DHT22;3555;53.248;10.336;2023-04-23T03:25:42;15.00;1.00
7028;DHT22;3555;53.248;10.336;2023-04-23T03:28:09;14.90;99.90
7028;DHT22;3555;53.248;10.336;2023-04-23T03:30:36;14.90;1.00
7028;DHT22;3555;53.248;10.336;2023-04-23T03:33:03;14.80;34.40
7028;DHT22;3555;53.248;10.336;2023-04-23T03:35:30;14.60;1.00
7028;DHT22;3555;53.248;10.336;2023-04-23T03:37:57;14.40;1.00
7028;DHT22;3555;53.248;10.336;2023-04-23T03:40:25;14.30;1.00
7028;DHT22;3555;53.248;10.336;2023-04-23T03:42:52;14.20;9.30
7028;DHT22;3555;53.248;10.336;2023-04-23T03:45:19;14.10;99.90
7028;DHT22;3555;53.248;10.336;2023-04-23T03:47:46;14.10;99.90
7028;DHT22;3555;53.248;10.336;2023-04-23T03:50:12;13.90;1.00
7028;DHT22;3555;53.248;10.336;2023-04-23T03:52:39;13.90;99.90
7028;DHT22;3555;53.248;10.336;2023-04-23T03:55:07;13.80;99.90
7028;DHT22;3555;53.248;10.336;2023-04-23T03:57:35;13.80;94.10
7028;DHT22;3555;53.248;10.336;2023-04-23T04:00:03;13.80;99.90
7028;DHT22;3555;53.248;10.336;2023-04-23T04:02:32;13.80;1.00
7028;DHT22;3555;53.248;10.336;2023-04-23T04:04:59;13.70;1.00
7028;DHT22;3555;53.248;10.336;2023-04-23T04:07:26;13.70;1.00
7028;DHT22;3555;53.248;10.336;2023-04-23T04:09:53;13.70;99.90
7028;DHT22;3555;53.248;10.336;2023-04-23T04:12:20;13.60;99.90
7028;DHT22;3555;53.248;10.336;2023-04-23T04:14:48;13.60;99.50
7028;DHT22;3555;53.248;10.336;2023-04-23T04:17:15;13.60;1.00
7028;DHT22;3555;53.248;10.336;2023-04-23T04:19:42;13.60;99.90
7028;DHT22;3555;53.248;10.336;2023-04-23T04:22:09;13.60;99.90
7028;DHT22;3555;53.248;10.336;2023-04-23T04:24:36;13.60;99.90
7028;DHT22;3555;53.248;10.336;2023-04-23T04:27:03;13.50;1.00
7028;DHT22;3555;53.248;10.336;2023-04-23T04:29:30;13.50;99.90
7028;DHT22;3555;53.248;10.336;2023-04-23T04:31:59;13.60;99.90
7028;DHT22;3555;53.248;10.336;2023-04-23T04:34:27;13.60;1.00
7028;DHT22;3555;53.248;10.336;2023-04-23T04:36:54;13.60;1.00
7028;DHT22;3555;53.248;10.336;2023-04-23T04:39:20;13.60;1.00
7028;DHT22;3555;53.248;10.336;2023-04-23T04:41:47;13.60;1.00
7028;DHT22;3555;53.248;10.336;2023-04-23T04:44:14;13.60;28.20
7028;DHT22;3555;53.248;10.336;2023-04-23T04:46:41;13.70;1.00
7028;DHT22;3555;53.248;10.336;2023-04-23T04:49:11;13.70;86.00
7028;DHT22;3555;53.248;10.336;2023-04-23T04:51:38;13.70;99.90
7028;DHT22;3555;53.248;10.336;2023-04-23T04:54:06;13.60;99.90
7028;DHT22;3555;53.248;10.336;2023-04-23T04:56:33;13.60;1.00
7028;DHT22;3555;53.248;10.336;2023-04-23T04:59:01;13.60;1.00
7028;DHT22;3555;53.248;10.336;2023-04-23T05:01:28;13.60;1.00
7028;DHT22;3555;53.248;10.336;2023-04-23T05:03:55;13.60;99.90
7028;DHT22;3555;53.248;10.336;2023-04-23T05:06:23;13.60;1.00
7028;DHT22;3555;53.248;10.336;2023-04-23T05:08:50;13.60;54.50
7028;DHT22;3555;53.248;10.336;2023-04-23T05:11:18;13.60;1.00
7028;DHT22;3555;53.248;10.336;2023-04-23T05:13:45;13.60;1.00
7028;DHT22;3555;53.248;10.336;2023-04-23T05:16:12;13.60;1.00
7028;DHT22;3555;53.248;10.336;2023-04-23T05:18:39;13.70;1.00
7028;DHT22;3555;53.248;10.336;2023-04-23T05:21:07;13.70;1.00
7028;DHT22;3555;53.248;10.336;2023-04-23T05:23:35;13.70;99.90
7028;DHT22;3555;53.248;10.336;2023-04-23T05:26:02;13.60;1.00
7028;DHT22;3555;53.248;10.336;2023-04-23T05:28:30;13.60;48.00
7028;DHT22;3555;53.248;10.336;2023-04-23T05:30:57;13.50;1.00
7028;DHT22;3555;53.248;10.336;2023-04-23T05:33:25;13.50;99.90
7028;DHT22;3555;53.248;10.336;2023-04-23T05:35:51;13.40;21.10
7028;DHT22;3555;53.248;10.336;2023-04-23T05:38:19;13.40;1.00
7028;DHT22;3555;53.248;10.336;2023-04-23T05:40:47;13.50;1.00
7028;DHT22;3555;53.248;10.336;2023-04-23T05:43:14;13.40;1.00
7028;DHT22;3555;53.248;10.336;2023-04-23T05:45:41;13.40;1.00
7028;DHT22;3555;53.248;10.336;2023-04-23T05:48:08;13.40;1.00
7028;DHT22;3555;53.248;10.336;2023-04-23T05:50:35;13.40;99.90
7028;DHT22;3555;53.248;10.336;2023-04-23T05:53:02;13.50;3.20
7028;DHT22;3555;53.248;10.336;2023-04-23T05:55:29;13.50;99.90
7028;DHT22;3555;53.248;10.336;2023-04-23T05:57:57;13.60;99.90
7028;DHT22;3555;53.248;10.336;2023-04-23T06:00:24;13.50;1.00
7028;DHT22;3555;53.248;10.336;2023-04-23T06:02:51;13.50;1.00
7028;DHT22;3555;53.248;10.336;2023-04-23T06:05:18;13.40;1.00
7028;DHT22;3555;53.248;10.336;2023-04-23T06:07:44;13.40;1.00
7028;DHT22;3555;53.248;10.336;2023-04-23T06:10:11;13.30;41.90
7028;DHT22;3555;53.248;10.336;2023-04-23T06:12:38;13.40;1.00
7028;DHT22;3555;53.248;10.336;2023-04-23T06:15:08;13.40;1.00
7028;DHT22;3555;53.248;10.336;2023-04-23T06:17:36;13.50;92.70
7028;DHT22;3555;53.248;10.336;2023-04-23T06:20:03;13.50;1.00
7028;DHT22;3555;53.248;10.336;2023-04-23T06:22:30;13.50;1.00
7028;DHT22;3555;53.248;10.336;2023-04-23T06:24:57;13.60;99.90
7028;DHT22;3555;53.248;10.336;2023-04-23T06:27:24;13.60;1.00
7028;DHT22;3555;53.248;10.336;2023-04-23T06:29:51;13.60;1.00
7028;DHT22;3555;53.248;10.336;2023-04-23T06:32:20;13.60;1.00
7028;DHT22;3555;53.248;10.336;2023-04-23T06:34:47;13.60;1.00
7028;DHT22;3555;53.248;10.336;2023-04-23T06:37:14;13.60;99.90
7028;DHT22;3555;53.248;10.336;2023-04-23T06:39:41;13.70;1.00
7028;DHT22;3555;53.248;10.336;2023-04-23T06:42:08;13.60;99.90
7028;DHT22;3555;53.248;10.336;2023-04-23T06:44:34;13.50;99.90
7028;DHT22;3555;53.248;10.336;2023-04-23T06:47:01;13.50;99.90
7028;DHT22;3555;53.248;10.336;2023-04-23T06:49:30;13.70;99.90
7028;DHT22;3555;53.248;10.336;2023-04-23T06:51:56;13.60;99.90
7028;DHT22;3555;53.248;10.336;2023-04-23T06:54:23;13.60;1.00
7028;DHT22;3555;53.248;10.336;2023-04-23T06:56:50;13.60;99.90
7028;DHT22;3555;53.248;10.336;2023-04-23T06:59:17;13.80;54.80
7028;DHT22;3555;53.248;10.336;2023-04-23T07:01:45;13.60;99.90
7028;DHT22;3555;53.248;10.336;2023-04-23T07:04:11;13.70;62.60
7028;DHT22;3555;53.248;10.336;2023-04-23T07:06:40;13.70;1.00
7028;DHT22;3555;53.248;10.336;2023-04-23T07:09:06;13.60;91.30
7028;DHT22;3555;53.248;10.336;2023-04-23T07:11:33;13.60;30.70
7028;DHT22;3555;53.248;10.336;2023-04-23T07:14:01;13.60;99.90
7028;DHT22;3555;53.248;10.336;2023-04-23T07:16:28;13.60;99.90
7028;DHT22;3555;53.248;10.336;2023-04-23T07:18:58;13.50;46.30
7028;DHT22;3555;53.248;10.336;2023-04-23T07:21:26;13.50;1.00
7028;DHT22;3555;53.248;10.336;2023-04-23T07:23:55;13.50;1.00
7028;DHT22;3555;53.248;10.336;2023-04-23T07:26:22;13.50;99.90
7028;DHT22;3555;53.248;10.336;2023-04-23T07:28:49;13.50;1.00
7028;DHT22;3555;53.248;10.336;2023-04-23T07:31:16;13.40;1.00
7028;DHT22;3555;53.248;10.336;2023-04-23T07:33:44;13.50;99.90
7028;DHT22;3555;53.248;10.336;2023-04-23T07:36:11;13.50;99.90
7028;DHT22;3555;53.248;10.336;2023-04-23T07:38:37;13.50;1.00
7028;DHT22;3555;53.248;10.336;2023-04-23T07:41:06;13.60;1.00
7028;DHT22;3555;53.248;10.336;2023-04-23T07:43:32;13.70;1.00
7028;DHT22;3555;53.248;10.336;2023-04-23T07:45:59;13.70;1.00
7028;DHT22;3555;53.248;10.336;2023-04-23T07:48:26;13.80;1.00
7028;DHT22;3555;53.248;10.336;2023-04-23T07:50:53;13.80;1.00
7028;DHT22;3555;53.248;10.336;2023-04-23T07:53:21;13.80;1.00
7028;DHT22;3555;53.248;10.336;2023-04-23T07:55:48;13.90;1.00
7028;DHT22;3555;53.248;10.336;2023-04-23T07:58:16;13.90;1.00
7028;DHT22;3555;53.248;10.336;2023-04-23T08:00:43;13.80;1.00
7028;DHT22;3555;53.248;10.336;2023-04-23T08:03:10;13.80;1.00
7028;DHT22;3555;53.248;10.336;2023-04-23T08:05:36;13.90;1.00
7028;DHT22;3555;53.248;10.336;2023-04-23T08:08:05;14.00;1.00
7028;DHT22;3555;53.248;10.336;2023-04-23T08:10:32;14.20;1.50
7028;DHT22;3555;53.248;10.336;2023-04-23T08:12:59;14.30;14.40
7028;DHT22;3555;53.248;10.336;2023-04-23T08:15:27;14.50;46.10
7028;DHT22;3555;53.248;10.336;2023-04-23T08:17:54;14.80;1.00
7028;DHT22;3555;53.248;10.336;2023-04-23T08:20:21;15.00;1.00
7028;DHT22;3555;53.248;10.336;2023-04-23T08:22:49;15.10;1.00
7028;DHT22;3555;53.248;10.336;2023-04-23T08:25:18;15.30;1.00
7028;DHT22;3555;53.248;10.336;2023-04-23T08:27:45;15.50;99.90
7028;DHT22;3555;53.248;10.336;2023-04-23T08:30:12;15.60;99.90
7028;DHT22;3555;53.248;10.336;2023-04-23T08:32:40;15.80;99.90
7028;DHT22;3555;53.248;10.336;2023-04-23T08:35:08;16.00;99.90
7028;DHT22;3555;53.248;10.336;2023-04-23T08:37:35;16.20;99.90
7028;DHT22;3555;53.248;10.336;2023-04-23T08:40:04;16.40;99.90
7028;DHT22;3555;53.248;10.336;2023-04-23T08:42:36;16.60;92.70
7028;DHT22;3555;53.248;10.336;2023-04-23T08:45:04;16.50;6.80
7028;DHT22;3555;53.248;10.336;2023-04-23T08:47:32;16.30;1.00
7028;DHT22;3555;53.248;10.336;2023-04-23T08:50:03;16.00;1.00
7028;DHT22;3555;53.248;10.336;2023-04-23T08:52:33;16.20;99.90
7028;DHT22;3555;53.248;10.336;2023-04-23T08:55:01;16.30;99.90
7028;DHT22;3555;53.248;10.336;2023-04-23T08:57:30;16.50;99.90
7028;DHT22;3555;53.248;10.336;2023-04-23T08:59:58;16.70;26.20
7028;DHT22;3555;53.248;10.336;2023-04-23T09:02:26;17.00;77.40
7028;DHT22;3555;53.248;10.336;2023-04-23T09:04:54;17.20;55.50
7028;DHT22;3555;53.248;10.336;2023-04-23T09:07:22;17.40;1.00
7028;DHT22;3555;53.248;10.336;2023-04-23T09:09:49;17.30;1.00
7028;DHT22;3555;53.248;10.336;2023-04-23T09:12:16;17.30;1.00
7028;DHT22;3555;53.248;10.336;2023-04-23T09:14:43;17.20;1.00
7028;DHT22;3555;53.248;10.336;2023-04-23T09:17:10;17.40;7.20
7028;DHT22;3555;53.248;10.336;2023-04-23T09:19:38;17.70;1.00
7028;DHT22;3555;53.248;10.336;2023-04-23T09:22:06;18.10;1.00
7028;DHT22;3555;53.248;10.336;2023-04-23T09:24:35;18.30;1.00
7028;DHT22;3555;53.248;10.336;2023-04-23T09:27:02;18.60;1.00
7028;DHT22;3555;53.248;10.336;2023-04-23T09:29:29;19.00;1.00
7028;DHT22;3555;53.248;10.336;2023-04-23T09:32:05;19.30;1.00
7028;DHT22;3555;53.248;10.336;2023-04-23T09:34:34;19.40;1.00
7028;DHT22;3555;53.248;10.336;2023-04-23T09:37:03;19.60;1.00
7028;DHT22;3555;53.248;10.336;2023-04-23T09:39:33;19.80;1.00
7028;DHT22;3555;53.248;10.336;2023-04-23T09:42:04;19.90;1.00
7028;DHT22;3555;53.248;10.336;2023-04-23T09:44:33;19.80;1.00
7028;DHT22;3555;53.248;10.336;2023-04-23T09:47:05;19.70;1.00
7028;DHT22;3555;53.248;10.336;2023-04-23T09:49:44;20.00;1.00
7028;DHT22;3555;53.248;10.336;2023-04-23T09:52:12;20.30;1.00
7028;DHT22;3555;53.248;10.336;2023-04-23T09:54:38;20.40;1.00
7028;DHT22;3555;53.248;10.336;2023-04-23T09:57:07;20.60;1.00
7028;DHT22;3555;53.248;10.336;2023-04-23T09:59:34;20.80;1.00
7028;DHT22;3555;53.248;10.336;2023-04-23T10:02:05;20.90;1.00
7028;DHT22;3555;53.248;10.336;2023-04-23T10:04:33;20.80;1.00
7028;DHT22;3555;53.248;10.336;2023-04-23T10:07:01;20.80;1.00
7028;DHT22;3555;53.248;10.336;2023-04-23T10:09:29;20.70;1.00
7028;DHT22;3555;53.248;10.336;2023-04-23T10:11:58;20.70;1.00
7028;DHT22;3555;53.248;10.336;2023-04-23T10:14:28;20.50;1.00
7028;DHT22;3555;53.248;10.336;2023-04-23T10:16:57;20.60;1.00
7028;DHT22;3555;53.248;10.336;2023-04-23T10:19:25;21.00;1.00
7028;DHT22;3555;53.248;10.336;2023-04-23T10:21:54;21.40;1.00
7028;DHT22;3555;53.248;10.336;2023-04-23T10:24:25;21.80;1.00
7028;DHT22;3555;53.248;10.336;2023-04-23T10:26:56;22.10;1.00
7028;DHT22;3555;53.248;10.336;2023-04-23T10:29:26;22.10;1.00
7028;DHT22;3555;53.248;10.336;2023-04-23T10:31:55;22.20;1.00
7028;DHT22;3555;53.248;10.336;2023-04-23T10:34:24;22.50;1.00
7028;DHT22;3555;53.248;10.336;2023-04-23T10:36:51;22.60;1.00
7028;DHT22;3555;53.248;10.336;2023-04-23T10:39:19;22.80;1.00
7028;DHT22;3555;53.248;10.336;2023-04-23T10:41:47;23.10;1.00
7028;DHT22;3555;53.248;10.336;2023-04-23T10:44:14;23.10;1.00
7028;DHT22;3555;53.248;10.336;2023-04-23T10:46:50;23.40;1.00
7028;DHT22;3555;53.248;10.336;2023-04-23T10:49:21;23.60;1.00
7028;DHT22;3555;53.248;10.336;2023-04-23T10:51:48;23.90;1.00
7028;DHT22;3555;53.248;10.336;2023-04-23T10:54:17;23.90;1.00
7028;DHT22;3555;53.248;10.336;2023-04-23T10:56:45;23.60;1.00
7028;DHT22;3555;53.248;10.336;2023-04-23T10:59:18;23.50;1.00
7028;DHT22;3555;53.248;10.336;2023-04-23T11:01:46;23.40;1.00
7028;DHT22;3555;53.248;10.336;2023-04-23T11:04:22;23.40;1.00
7028;DHT22;3555;53.248;10.336;2023-04-23T11:06:51;23.50;1.00
7028;DHT22;3555;53.248;10.336;2023-04-23T11:09:35;23.50;1.00
7028;DHT22;3555;53.248;10.336;2023-04-23T11:12:06;23.90;1.00
7028;DHT22;3555;53.248;10.336;2023-04-23T11:17:17;24.10;1.00
7028;DHT22;3555;53.248;10.336;2023-04-23T11:20:10;23.90;1.00
7028;DHT22;3555;53.248;10.336;2023-04-23T11:22:39;22.30;1.00
7028;DHT22;3555;53.248;10.336;2023-04-23T11:25:08;22.70;1.00
7028;DHT22;3555;53.248;10.336;2023-04-23T11:27:37;22.00;1.00
7028;DHT22;3555;53.248;10.336;2023-04-23T11:30:07;22.20;1.00
7028;DHT22;3555;53.248;10.336;2023-04-23T11:32:35;22.70;1.00
7028;DHT22;3555;53.248;10.336;2023-04-23T11:35:02;23.00;1.00
7028;DHT22;3555;53.248;10.336;2023-04-23T11:37:31;23.20;1.00
7028;DHT22;3555;53.248;10.336;2023-04-23T11:40:04;22.60;1.00
7028;DHT22;3555;53.248;10.336;2023-04-23T11:42:40;22.70;1.00
7028;DHT22;3555;53.248;10.336;2023-04-23T11:45:17;23.00;1.00
7028;DHT22;3555;53.248;10.336;2023-04-23T11:47:45;23.20;1.00
7028;DHT22;3555;53.248;10.336;2023-04-23T11:50:19;23.00;1.00
7028;DHT22;3555;53.248;10.336;2023-04-23T11:52:48;23.00;1.00
7028;DHT22;3555;53.248;10.336;2023-04-23T11:55:15;23.20;1.00
7028;DHT22;3555;53.248;10.336;2023-04-23T11:57:42;23.00;1.00
7028;DHT22;3555;53.248;10.336;2023-04-23T12:00:12;22.90;1.00
7028;DHT22;3555;53.248;10.336;2023-04-23T12:02:49;23.00;1.00
7028;DHT22;3555;53.248;10.336;2023-04-23T12:05:19;22.50;1.00
7028;DHT22;3555;53.248;10.336;2023-04-23T12:07:49;21.60;1.00
7028;DHT22;3555;53.248;10.336;2023-04-23T12:10:17;21.00;1.00
7028;DHT22;3555;53.248;10.336;2023-04-23T12:12:48;21.00;1.00
7028;DHT22;3555;53.248;10.336;2023-04-23T12:15:16;21.30;1.00
7028;DHT22;3555;53.248;10.336;2023-04-23T12:17:47;21.70;1.00
7028;DHT22;3555;53.248;10.336;2023-04-23T12:20:17;21.90;1.00
7028;DHT22;3555;53.248;10.336;2023-04-23T12:22:44;22.20;1.00
7028;DHT22;3555;53.248;10.336;2023-04-23T12:25:12;21.90;1.00
7028;DHT22;3555;53.248;10.336;2023-04-23T12:27:41;21.00;1.00
7028;DHT22;3555;53.248;10.336;2023-04-23T12:30:10;21.20;1.00
7028;DHT22;3555;53.248;10.336;2023-04-23T12:32:37;21.50;1.00
7028;DHT22;3555;53.248;10.336;2023-04-23T12:35:04;21.70;1.00
7028;DHT22;3555;53.248;10.336;2023-04-23T12:37:35;21.70;1.00
7028;DHT22;3555;53.248;10.336;2023-04-23T12:40:03;21.50;1.00
7028;DHT22;3555;53.248;10.336;2023-04-23T12:42:33;21.80;1.00
7028;DHT22;3555;53.248;10.336;2023-04-23T12:45:05;22.20;1.00
7028;DHT22;3555;53.248;10.336;2023-04-23T12:47:32;22.40;1.00
7028;DHT22;3555;53.248;10.336;2023-04-23T12:49:59;21.90;1.00
7028;DHT22;3555;53.248;10.336;2023-04-23T12:52:28;21.40;1.00
7028;DHT22;3555;53.248;10.336;2023-04-23T12:54:55;21.10;1.00
7028;DHT22;3555;53.248;10.336;2023-04-23T12:57:23;20.70;1.00
7028;DHT22;3555;53.248;10.336;2023-04-23T12:59:53;20.80;1.00
7028;DHT22;3555;53.248;10.336;2023-04-23T13:02:21;20.80;1.00
7028;DHT22;3555;53.248;10.336;2023-04-23T13:04:47;20.80;1.00
7028;DHT22;3555;53.248;10.336;2023-04-23T13:07:14;20.90;1.00
7028;DHT22;3555;53.248;10.336;2023-04-23T13:09:41;20.90;1.00
7028;DHT22;3555;53.248;10.336;2023-04-23T13:12:08;21.20;1.00
7028;DHT22;3555;53.248;10.336;2023-04-23T13:14:35;21.20;1.00
7028;DHT22;3555;53.248;10.336;2023-04-23T13:17:03;20.90;1.00
7028;DHT22;3555;53.248;10.336;2023-04-23T13:19:30;20.80;1.00
7028;DHT22;3555;53.248;10.336;2023-04-23T13:21:58;20.70;1.00
7028;DHT22;3555;53.248;10.336;2023-04-23T13:24:25;20.60;1.00
7028;DHT22;3555;53.248;10.336;2023-04-23T13:26:52;20.60;1.00
7028;DHT22;3555;53.248;10.336;2023-04-23T13:29:19;20.60;1.00
7028;DHT22;3555;53.248;10.336;2023-04-23T13:31:46;20.80;1.00
7028;DHT22;3555;53.248;10.336;2023-04-23T13:34:14;20.50;1.00
7028;DHT22;3555;53.248;10.336;2023-04-23T13:36:41;19.80;1.00
7028;DHT22;3555;53.248;10.336;2023-04-23T13:39:08;20.30;1.00
7028;DHT22;3555;53.248;10.336;2023-04-23T13:41:38;20.30;1.00
7028;DHT22;3555;53.248;10.336;2023-04-23T13:44:05;20.30;1.00
7028;DHT22;3555;53.248;10.336;2023-04-23T13:46:32;20.20;1.00
7028;DHT22;3555;53.248;10.336;2023-04-23T13:48:59;20.00;1.00
7028;DHT22;3555;53.248;10.336;2023-04-23T13:51:27;20.00;1.00
7028;DHT22;3555;53.248;10.336;2023-04-23T13:53:54;20.30;1.00
7028;DHT22;3555;53.248;10.336;2023-04-23T13:56:22;20.50;1.00
7028;DHT22;3555;53.248;10.336;2023-04-23T13:58:50;20.60;1.00
7028;DHT22;3555;53.248;10.336;2023-04-23T14:01:17;20.30;1.00
7028;DHT22;3555;53.248;10.336;2023-04-23T14:03:44;20.10;1.00
7028;DHT22;3555;53.248;10.336;2023-04-23T14:06:12;20.00;1.00
7028;DHT22;3555;53.248;10.336;2023-04-23T14:08:40;20.10;1.00
7028;DHT22;3555;53.248;10.336;2023-04-23T14:11:07;20.10;1.00
7028;DHT22;3555;53.248;10.336;2023-04-23T14:13:35;20.20;1.00
7028;DHT22;3555;53.248;10.336;2023-04-23T14:16:02;20.30;1.00
7028;DHT22;3555;53.248;10.336;2023-04-23T14:18:29;20.50;1.00
7028;DHT22;3555;53.248;10.336;2023-04-23T14:20:56;20.40;1.00
7028;DHT22;3555;53.248;10.336;2023-04-23T14:23:55;20.40;1.00
7028;DHT22;3555;53.248;10.336;2023-04-23T14:26:31;20.50;1.00
7028;DHT22;3555;53.248;10.336;2023-04-23T14:29:03;20.30;1.00
7028;DHT22;3555;53.248;10.336;2023-04-23T14:31:34;19.80;1.00
7028;DHT22;3555;53.248;10.336;2023-04-23T14:34:02;19.90;1.00
7028;DHT22;3555;53.248;10.336;2023-04-23T14:36:29;19.60;1.00
7028;DHT22;3555;53.248;10.336;2023-04-23T14:38:57;19.30;1.00
7028;DHT22;3555;53.248;10.336;2023-04-23T14:41:29;19.10;1.00
7028;DHT22;3555;53.248;10.336;2023-04-23T14:43:57;18.90;1.00
7028;DHT22;3555;53.248;10.336;2023-04-23T14:46:24;19.00;1.00
7028;DHT22;3555;53.248;10.336;2023-04-23T14:48:51;19.10;1.00
7028;DHT22;3555;53.248;10.336;2023-04-23T14:51:18;19.20;1.00
7028;DHT22;3555;53.248;10.336;2023-04-23T14:53:45;19.10;1.00
7028;DHT22;3555;53.248;10.336;2023-04-23T14:56:13;19.20;1.00
7028;DHT22;3555;53.248;10.336;2023-04-23T14:58:40;18.80;1.00
7028;DHT22;3555;53.248;10.336;2023-04-23T15:01:07;18.80;1.00
7028;DHT22;3555;53.248;10.336;2023-04-23T15:03:34;18.80;1.00
7028;DHT22;3555;53.248;10.336;2023-04-23T15:06:01;18.80;1.00
7028;DHT22;3555;53.248;10.336;2023-04-23T15:08:28;18.80;1.00
7028;DHT22;3555;53.248;10.336;2023-04-23T15:10:55;18.60;1.00
7028;DHT22;3555;53.248;10.336;2023-04-23T15:13:44;18.40;1.00
7028;DHT22;3555;53.248;10.336;2023-04-23T15:16:25;18.50;1.00
7028;DHT22;3555;53.248;10.336;2023-04-23T15:18:54;18.50;1.00
7028;DHT22;3555;53.248;10.336;2023-04-23T15:21:21;18.40;1.00
7028;DHT22;3555;53.248;10.336;2023-04-23T15:23:48;18.60;1.00
7028;DHT22;3555;53.248;10.336;2023-04-23T15:26:15;18.40;1.00
7028;DHT22;3555;53.248;10.336;2023-04-23T15:28:43;18.30;1.00
7028;DHT22;3555;53.248;10.336;2023-04-23T15:33:45;18.60;1.00
7028;DHT22;3555;53.248;10.336;2023-04-23T15:36:12;18.10;1.00
7028;DHT22;3555;53.248;10.336;2023-04-23T15:38:39;18.80;1.00
7028;DHT22;3555;53.248;10.336;2023-04-23T15:41:06;18.80;1.00
7028;DHT22;3555;53.248;10.336;2023-04-23T15:43:33;18.80;1.00
7028;DHT22;3555;53.248;10.336;2023-04-23T15:46:01;18.60;1.00
7028;DHT22;3555;53.248;10.336;2023-04-23T15:48:28;18.60;1.00
7028;DHT22;3555;53.248;10.336;2023-04-23T15:50:55;18.60;1.00
7028;DHT22;3555;53.248;10.336;2023-04-23T15:53:22;18.60;1.00
7028;DHT22;3555;53.248;10.336;2023-04-23T15:55:49;18.60;1.00
7028;DHT22;3555;53.248;10.336;2023-04-23T15:58:17;18.80;1.00
7028;DHT22;3555;53.248;10.336;2023-04-23T16:00:44;18.80;1.00
7028;DHT22;3555;53.248;10.336;2023-04-23T16:03:12;18.90;1.00
7028;DHT22;3555;53.248;10.336;2023-04-23T16:05:39;19.00;1.00
7028;DHT22;3555;53.248;10.336;2023-04-23T16:08:07;19.10;1.00